sensor_id;sensor_type;location;lat;lon;timestamp;P1;durP1;ratioP1;P2;durP2;ratioP2
39518;SDS011;25200;53.394;10.414;2024-03-08T00:01:13;16.33;;;7.82;;
39518;SDS011;25200;53.394;10.414;2024-03-08T00:03:39;16.45;;;8.23;;
39518;SDS011;25200;53.394;10.414;2024-03-08T00:06:05;20.70;;;9.20;;
39518;SDS011;25200;53.394;10.414;2024-03-08T00:08:31;18.48;;;8.02;;
39518;SDS011;25200;53.394;10.414;2024-03-08T00:10:56;18.67;;;8.40;;
39518;SDS011;25200;53.394;10.414;2024-03-08T00:13:22;16.73;;;8.30;;
39518;SDS011;25200;53.394;10.414;2024-03-08T00:15:50;16.30;;;8.98;;
39518;SDS011;25200;53.394;10.414;2024-03-08T00:18:15;19.00;;;9.25;;
39518;SDS011;25200;53.394;10.414;2024-03-08T00:20:41;17.55;;;8.88;;
39518;SDS011;25200;53.394;10.414;2024-03-08T00:23:07;15.40;;;7.43;;
39518;SDS011;25200;53.394;10.414;2024-03-08T00:25:32;15.80;;;8.05;;
39518;SDS011;25200;53.394;10.414;2024-03-08T00:27:59;20.67;;;8.93;;
39518;SDS011;25200;53.394;10.414;2024-03-08T00:30:25;17.73;;;8.90;;
39518;SDS011;25200;53.394;10.414;2024-03-08T00:32:50;16.58;;;8.38;;
39518;SDS011;25200;53.394;10.414;2024-03-08T00:35:16;16.58;;;8.23;;
39518;SDS011;25200;53.394;10.414;2024-03-08T00:37:43;19.80;;;8.57;;
39518;SDS011;25200;53.394;10.414;2024-03-08T00:40:11;15.50;;;8.35;;
39518;SDS011;25200;53.394;10.414;2024-03-08T00:42:37;17.27;;;8.30;;
39518;SDS011;25200;53.394;10.414;2024-03-08T00:45:04;19.77;;;9.13;;
39518;SDS011;25200;53.394;10.414;2024-03-08T00:47:30;18.65;;;9.15;;
39518;SDS011;25200;53.394;10.414;2024-03-08T00:49:56;18.23;;;8.13;;
39518;SDS011;25200;53.394;10.414;2024-03-08T00:52:21;17.38;;;8.10;;
39518;SDS011;25200;53.394;10.414;2024-03-08T00:54:49;16.75;;;8.80;;
39518;SDS011;25200;53.394;10.414;2024-03-08T00:57:14;17.15;;;8.73;;
39518;SDS011;25200;53.394;10.414;2024-03-08T00:59:40;21.83;;;9.15;;
39518;SDS011;25200;53.394;10.414;2024-03-08T01:02:06;18.23;;;9.30;;
39518;SDS011;25200;53.394;10.414;2024-03-08T01:04:31;19.35;;;8.85;;
39518;SDS011;25200;53.394;10.414;2024-03-08T01:06:58;17.98;;;8.23;;
39518;SDS011;25200;53.394;10.414;2024-03-08T01:09:24;15.95;;;8.25;;
39518;SDS011;25200;53.394;10.414;2024-03-08T01:11:51;17.38;;;8.25;;
39518;SDS011;25200;53.394;10.414;2024-03-08T01:14:20;18.88;;;8.23;;
39518;SDS011;25200;53.394;10.414;2024-03-08T01:16:51;17.45;;;8.65;;
39518;SDS011;25200;53.394;10.414;2024-03-08T01:19:17;18.13;;;7.88;;
39518;SDS011;25200;53.394;10.414;2024-03-08T01:21:42;17.15;;;7.65;;
39518;SDS011;25200;53.394;10.414;2024-03-08T01:24:08;18.95;;;9.02;;
39518;SDS011;25200;53.394;10.414;2024-03-08T01:26:34;18.30;;;8.18;;
39518;SDS011;25200;53.394;10.414;2024-03-08T01:29:00;19.45;;;9.88;;
39518;SDS011;25200;53.394;10.414;2024-03-08T01:31:28;18.20;;;9.23;;
39518;SDS011;25200;53.394;10.414;2024-03-08T01:33:54;19.63;;;8.13;;
39518;SDS011;25200;53.394;10.414;2024-03-08T01:36:21;22.20;;;9.40;;
39518;SDS011;25200;53.394;10.414;2024-03-08T01:38:46;15.85;;;8.55;;
39518;SDS011;25200;53.394;10.414;2024-03-08T01:41:12;20.25;;;8.82;;
39518;SDS011;25200;53.394;10.414;2024-03-08T01:43:38;18.08;;;8.65;;
39518;SDS011;25200;53.394;10.414;2024-03-08T01:46:04;18.02;;;8.75;;
39518;SDS011;25200;53.394;10.414;2024-03-08T01:48:31;17.00;;;8.95;;
39518;SDS011;25200;53.394;10.414;2024-03-08T01:50:57;18.50;;;8.82;;
39518;SDS011;25200;53.394;10.414;2024-03-08T01:53:26;16.30;;;8.60;;
39518;SDS011;25200;53.394;10.414;2024-03-08T01:55:54;19.25;;;8.90;;
39518;SDS011;25200;53.394;10.414;2024-03-08T01:58:22;21.25;;;9.75;;
39518;SDS011;25200;53.394;10.414;2024-03-08T02:00:49;19.63;;;8.90;;
39518;SDS011;25200;53.394;10.414;2024-03-08T02:03:15;20.95;;;9.85;;
39518;SDS011;25200;53.394;10.414;2024-03-08T02:05:41;17.50;;;8.38;;
39518;SDS011;25200;53.394;10.414;2024-03-08T02:08:08;18.25;;;8.77;;
39518;SDS011;25200;53.394;10.414;2024-03-08T02:10:39;18.40;;;8.52;;
39518;SDS011;25200;53.394;10.414;2024-03-08T02:13:06;18.95;;;8.88;;
39518;SDS011;25200;53.394;10.414;2024-03-08T02:15:51;20.67;;;9.15;;
39518;SDS011;25200;53.394;10.414;2024-03-08T02:18:21;17.27;;;8.57;;
39518;SDS011;25200;53.394;10.414;2024-03-08T02:20:51;17.95;;;8.75;;
39518;SDS011;25200;53.394;10.414;2024-03-08T02:23:18;21.73;;;8.70;;
39518;SDS011;25200;53.394;10.414;2024-03-08T02:25:44;18.52;;;8.60;;
39518;SDS011;25200;53.394;10.414;2024-03-08T02:28:11;18.65;;;8.55;;
39518;SDS011;25200;53.394;10.414;2024-03-08T02:30:37;17.17;;;7.85;;
39518;SDS011;25200;53.394;10.414;2024-03-08T02:33:03;16.85;;;8.27;;
39518;SDS011;25200;53.394;10.414;2024-03-08T02:35:32;19.27;;;8.40;;
39518;SDS011;25200;53.394;10.414;2024-03-08T02:37:59;17.23;;;8.38;;
39518;SDS011;25200;53.394;10.414;2024-03-08T02:40:24;22.05;;;9.02;;
39518;SDS011;25200;53.394;10.414;2024-03-08T02:42:50;18.85;;;9.45;;
39518;SDS011;25200;53.394;10.414;2024-03-08T02:45:16;18.60;;;8.88;;
39518;SDS011;25200;53.394;10.414;2024-03-08T02:47:42;22.95;;;9.30;;
39518;SDS011;25200;53.394;10.414;2024-03-08T02:50:07;18.83;;;8.40;;
39518;SDS011;25200;53.394;10.414;2024-03-08T02:52:33;18.60;;;8.93;;
39518;SDS011;25200;53.394;10.414;2024-03-08T02:55:00;19.63;;;9.95;;
39518;SDS011;25200;53.394;10.414;2024-03-08T02:57:31;17.73;;;9.30;;
39518;SDS011;25200;53.394;10.414;2024-03-08T03:00:00;19.77;;;8.40;;
39518;SDS011;25200;53.394;10.414;2024-03-08T03:02:26;20.25;;;9.43;;
39518;SDS011;25200;53.394;10.414;2024-03-08T03:04:51;20.77;;;9.65;;
39518;SDS011;25200;53.394;10.414;2024-03-08T03:07:17;20.75;;;9.02;;
39518;SDS011;25200;53.394;10.414;2024-03-08T03:09:43;20.27;;;8.77;;
39518;SDS011;25200;53.394;10.414;2024-03-08T03:12:08;20.95;;;7.95;;
39518;SDS011;25200;53.394;10.414;2024-03-08T03:14:37;18.60;;;8.50;;
39518;SDS011;25200;53.394;10.414;2024-03-08T03:17:05;21.27;;;8.82;;
39518;SDS011;25200;53.394;10.414;2024-03-08T03:19:31;18.58;;;8.13;;
39518;SDS011;25200;53.394;10.414;2024-03-08T03:21:57;21.92;;;9.77;;
39518;SDS011;25200;53.394;10.414;2024-03-08T03:24:23;20.50;;;9.35;;
39518;SDS011;25200;53.394;10.414;2024-03-08T03:26:48;20.95;;;9.68;;
39518;SDS011;25200;53.394;10.414;2024-03-08T03:29:14;20.25;;;10.05;;
39518;SDS011;25200;53.394;10.414;2024-03-08T03:31:42;23.88;;;10.32;;
39518;SDS011;25200;53.394;10.414;2024-03-08T03:34:10;23.08;;;9.25;;
39518;SDS011;25200;53.394;10.414;2024-03-08T03:36:37;20.98;;;9.55;;
39518;SDS011;25200;53.394;10.414;2024-03-08T03:39:07;18.02;;;8.45;;
39518;SDS011;25200;53.394;10.414;2024-03-08T03:41:37;21.20;;;9.10;;
39518;SDS011;25200;53.394;10.414;2024-03-08T03:44:04;20.98;;;10.02;;
39518;SDS011;25200;53.394;10.414;2024-03-08T03:46:32;20.63;;;9.32;;
39518;SDS011;25200;53.394;10.414;2024-03-08T03:48:58;20.92;;;9.77;;
39518;SDS011;25200;53.394;10.414;2024-03-08T03:51:23;24.05;;;10.43;;
39518;SDS011;25200;53.394;10.414;2024-03-08T03:53:49;21.52;;;9.30;;
39518;SDS011;25200;53.394;10.414;2024-03-08T03:56:15;19.02;;;9.43;;
39518;SDS011;25200;53.394;10.414;2024-03-08T03:58:41;19.13;;;8.95;;
39518;SDS011;25200;53.394;10.414;2024-03-08T04:01:07;21.42;;;9.48;;
39518;SDS011;25200;53.394;10.414;2024-03-08T04:03:33;21.35;;;9.77;;
39518;SDS011;25200;53.394;10.414;2024-03-08T04:05:58;22.25;;;9.77;;
39518;SDS011;25200;53.394;10.414;2024-03-08T04:08:24;20.20;;;8.73;;
39518;SDS011;25200;53.394;10.414;2024-03-08T04:10:50;20.33;;;9.38;;
39518;SDS011;25200;53.394;10.414;2024-03-08T04:13:16;18.80;;;9.32;;
39518;SDS011;25200;53.394;10.414;2024-03-08T04:15:41;23.48;;;9.48;;
39518;SDS011;25200;53.394;10.414;2024-03-08T04:18:09;19.83;;;9.07;;
39518;SDS011;25200;53.394;10.414;2024-03-08T04:20:35;21.15;;;9.50;;
39518;SDS011;25200;53.394;10.414;2024-03-08T04:23:00;22.65;;;9.43;;
39518;SDS011;25200;53.394;10.414;2024-03-08T04:25:27;21.85;;;9.45;;
39518;SDS011;25200;53.394;10.414;2024-03-08T04:27:52;20.70;;;9.65;;
39518;SDS011;25200;53.394;10.414;2024-03-08T04:30:18;20.05;;;9.10;;
39518;SDS011;25200;53.394;10.414;2024-03-08T04:32:46;21.20;;;8.45;;
39518;SDS011;25200;53.394;10.414;2024-03-08T04:35:12;20.90;;;9.63;;
39518;SDS011;25200;53.394;10.414;2024-03-08T04:37:39;20.23;;;9.10;;
39518;SDS011;25200;53.394;10.414;2024-03-08T04:40:05;19.05;;;8.93;;
39518;SDS011;25200;53.394;10.414;2024-03-08T04:42:33;22.38;;;9.68;;
39518;SDS011;25200;53.394;10.414;2024-03-08T04:44:59;19.33;;;9.20;;
39518;SDS011;25200;53.394;10.414;2024-03-08T04:47:25;21.08;;;10.38;;
39518;SDS011;25200;53.394;10.414;2024-03-08T04:49:50;20.30;;;9.27;;
39518;SDS011;25200;53.394;10.414;2024-03-08T04:52:16;22.27;;;9.23;;
39518;SDS011;25200;53.394;10.414;2024-03-08T04:54:43;21.02;;;9.82;;
39518;SDS011;25200;53.394;10.414;2024-03-08T04:57:09;20.90;;;9.57;;
39518;SDS011;25200;53.394;10.414;2024-03-08T04:59:35;24.42;;;10.93;;
39518;SDS011;25200;53.394;10.414;2024-03-08T05:02:01;22.77;;;9.25;;
39518;SDS011;25200;53.394;10.414;2024-03-08T05:04:27;23.13;;;10.05;;
39518;SDS011;25200;53.394;10.414;2024-03-08T05:06:54;19.15;;;8.73;;
39518;SDS011;25200;53.394;10.414;2024-03-08T05:09:19;21.27;;;9.77;;
39518;SDS011;25200;53.394;10.414;2024-03-08T05:11:45;22.23;;;9.00;;
39518;SDS011;25200;53.394;10.414;2024-03-08T05:14:12;18.90;;;9.50;;
39518;SDS011;25200;53.394;10.414;2024-03-08T05:16:45;18.17;;;8.93;;
39518;SDS011;25200;53.394;10.414;2024-03-08T05:19:17;18.23;;;8.82;;
39518;SDS011;25200;53.394;10.414;2024-03-08T05:21:44;20.50;;;8.73;;
39518;SDS011;25200;53.394;10.414;2024-03-08T05:24:14;23.30;;;10.05;;
39518;SDS011;25200;53.394;10.414;2024-03-08T05:26:40;18.85;;;8.50;;
39518;SDS011;25200;53.394;10.414;2024-03-08T05:29:06;23.25;;;9.82;;
39518;SDS011;25200;53.394;10.414;2024-03-08T05:31:41;19.85;;;8.18;;
39518;SDS011;25200;53.394;10.414;2024-03-08T05:34:11;21.63;;;9.73;;
39518;SDS011;25200;53.394;10.414;2024-03-08T05:36:39;22.35;;;10.23;;
39518;SDS011;25200;53.394;10.414;2024-03-08T05:39:05;21.52;;;9.27;;
39518;SDS011;25200;53.394;10.414;2024-03-08T05:41:32;19.98;;;9.45;;
39518;SDS011;25200;53.394;10.414;2024-03-08T05:44:00;21.95;;;9.70;;
39518;SDS011;25200;53.394;10.414;2024-03-08T05:46:26;22.17;;;9.48;;
39518;SDS011;25200;53.394;10.414;2024-03-08T05:48:51;20.23;;;9.20;;
39518;SDS011;25200;53.394;10.414;2024-03-08T05:51:18;21.80;;;9.88;;
39518;SDS011;25200;53.394;10.414;2024-03-08T05:53:46;21.65;;;8.63;;
39518;SDS011;25200;53.394;10.414;2024-03-08T05:56:11;21.23;;;9.32;;
39518;SDS011;25200;53.394;10.414;2024-03-08T05:58:37;22.63;;;9.90;;
39518;SDS011;25200;53.394;10.414;2024-03-08T06:01:02;24.95;;;10.23;;
39518;SDS011;25200;53.394;10.414;2024-03-08T06:03:32;24.00;;;10.07;;
39518;SDS011;25200;53.394;10.414;2024-03-08T06:05:59;23.05;;;9.70;;
39518;SDS011;25200;53.394;10.414;2024-03-08T06:08:24;23.75;;;10.30;;
39518;SDS011;25200;53.394;10.414;2024-03-08T06:10:54;21.23;;;8.13;;
39518;SDS011;25200;53.394;10.414;2024-03-08T06:13:21;20.95;;;9.27;;
39518;SDS011;25200;53.394;10.414;2024-03-08T06:15:46;23.40;;;9.30;;
39518;SDS011;25200;53.394;10.414;2024-03-08T06:18:12;20.92;;;9.32;;
39518;SDS011;25200;53.394;10.414;2024-03-08T06:20:37;18.38;;;8.90;;
39518;SDS011;25200;53.394;10.414;2024-03-08T06:23:03;24.17;;;9.20;;
39518;SDS011;25200;53.394;10.414;2024-03-08T06:25:29;20.67;;;9.68;;
39518;SDS011;25200;53.394;10.414;2024-03-08T06:27:54;21.48;;;9.00;;
39518;SDS011;25200;53.394;10.414;2024-03-08T06:30:20;19.67;;;9.38;;
39518;SDS011;25200;53.394;10.414;2024-03-08T06:32:46;25.45;;;10.35;;
39518;SDS011;25200;53.394;10.414;2024-03-08T06:35:11;19.08;;;8.75;;
39518;SDS011;25200;53.394;10.414;2024-03-08T06:37:37;20.60;;;8.82;;
39518;SDS011;25200;53.394;10.414;2024-03-08T06:40:03;23.00;;;9.85;;
39518;SDS011;25200;53.394;10.414;2024-03-08T06:42:29;22.00;;;9.05;;
39518;SDS011;25200;53.394;10.414;2024-03-08T06:44:59;21.00;;;9.80;;
39518;SDS011;25200;53.394;10.414;2024-03-08T06:47:29;20.30;;;9.15;;
39518;SDS011;25200;53.394;10.414;2024-03-08T06:49:55;25.30;;;10.40;;
39518;SDS011;25200;53.394;10.414;2024-03-08T06:52:20;24.58;;;9.55;;
39518;SDS011;25200;53.394;10.414;2024-03-08T06:54:47;22.98;;;9.38;;
39518;SDS011;25200;53.394;10.414;2024-03-08T06:57:13;21.92;;;10.05;;
39518;SDS011;25200;53.394;10.414;2024-03-08T06:59:39;21.38;;;10.15;;
39518;SDS011;25200;53.394;10.414;2024-03-08T07:02:04;22.13;;;9.85;;
39518;SDS011;25200;53.394;10.414;2024-03-08T07:04:34;23.25;;;10.13;;
39518;SDS011;25200;53.394;10.414;2024-03-08T07:07:03;24.75;;;10.38;;
39518;SDS011;25200;53.394;10.414;2024-03-08T07:09:29;23.15;;;10.73;;
39518;SDS011;25200;53.394;10.414;2024-03-08T07:11:54;23.17;;;10.45;;
39518;SDS011;25200;53.394;10.414;2024-03-08T07:14:21;21.80;;;9.95;;
39518;SDS011;25200;53.394;10.414;2024-03-08T07:16:47;21.35;;;9.05;;
39518;SDS011;25200;53.394;10.414;2024-03-08T07:19:13;24.65;;;10.77;;
39518;SDS011;25200;53.394;10.414;2024-03-08T07:21:38;29.67;;;9.85;;
39518;SDS011;25200;53.394;10.414;2024-03-08T07:24:04;23.30;;;10.35;;
39518;SDS011;25200;53.394;10.414;2024-03-08T07:26:42;24.58;;;11.02;;
39518;SDS011;25200;53.394;10.414;2024-03-08T07:29:08;24.70;;;10.68;;
39518;SDS011;25200;53.394;10.414;2024-03-08T07:31:34;22.40;;;9.63;;
39518;SDS011;25200;53.394;10.414;2024-03-08T07:34:10;22.50;;;10.27;;
39518;SDS011;25200;53.394;10.414;2024-03-08T07:36:36;21.42;;;10.50;;
39518;SDS011;25200;53.394;10.414;2024-03-08T07:39:01;24.13;;;10.93;;
39518;SDS011;25200;53.394;10.414;2024-03-08T07:41:27;26.92;;;11.18;;
39518;SDS011;25200;53.394;10.414;2024-03-08T07:43:55;26.52;;;10.82;;
39518;SDS011;25200;53.394;10.414;2024-03-08T07:46:20;21.42;;;9.88;;
39518;SDS011;25200;53.394;10.414;2024-03-08T07:48:46;26.80;;;11.27;;
39518;SDS011;25200;53.394;10.414;2024-03-08T07:51:15;23.65;;;10.45;;
39518;SDS011;25200;53.394;10.414;2024-03-08T07:53:42;25.45;;;10.68;;
39518;SDS011;25200;53.394;10.414;2024-03-08T07:56:08;26.15;;;11.82;;
39518;SDS011;25200;53.394;10.414;2024-03-08T07:58:38;24.23;;;11.88;;
39518;SDS011;25200;53.394;10.414;2024-03-08T08:01:05;28.10;;;11.27;;
39518;SDS011;25200;53.394;10.414;2024-03-08T08:03:31;23.55;;;11.75;;
39518;SDS011;25200;53.394;10.414;2024-03-08T08:05:57;25.63;;;11.60;;
39518;SDS011;25200;53.394;10.414;2024-03-08T08:08:22;24.77;;;11.13;;
39518;SDS011;25200;53.394;10.414;2024-03-08T08:10:49;25.85;;;10.27;;
39518;SDS011;25200;53.394;10.414;2024-03-08T08:13:14;26.48;;;10.60;;
39518;SDS011;25200;53.394;10.414;2024-03-08T08:15:40;27.67;;;11.43;;
39518;SDS011;25200;53.394;10.414;2024-03-08T08:18:06;24.55;;;11.77;;
39518;SDS011;25200;53.394;10.414;2024-03-08T08:20:32;21.60;;;9.27;;
39518;SDS011;25200;53.394;10.414;2024-03-08T08:22:58;26.25;;;11.93;;
39518;SDS011;25200;53.394;10.414;2024-03-08T08:25:24;25.58;;;10.85;;
39518;SDS011;25200;53.394;10.414;2024-03-08T08:27:49;24.77;;;10.20;;
39518;SDS011;25200;53.394;10.414;2024-03-08T08:30:15;25.13;;;11.55;;
39518;SDS011;25200;53.394;10.414;2024-03-08T08:32:41;23.20;;;10.38;;
39518;SDS011;25200;53.394;10.414;2024-03-08T08:35:09;25.50;;;12.20;;
39518;SDS011;25200;53.394;10.414;2024-03-08T08:37:38;28.27;;;11.38;;
39518;SDS011;25200;53.394;10.414;2024-03-08T08:40:04;26.20;;;11.73;;
39518;SDS011;25200;53.394;10.414;2024-03-08T08:42:37;27.88;;;13.10;;
39518;SDS011;25200;53.394;10.414;2024-03-08T08:45:04;25.23;;;11.70;;
39518;SDS011;25200;53.394;10.414;2024-03-08T08:47:33;29.25;;;11.70;;
39518;SDS011;25200;53.394;10.414;2024-03-08T08:50:02;23.10;;;11.35;;
39518;SDS011;25200;53.394;10.414;2024-03-08T08:52:31;22.55;;;10.63;;
39518;SDS011;25200;53.394;10.414;2024-03-08T08:54:57;27.40;;;12.75;;
39518;SDS011;25200;53.394;10.414;2024-03-08T08:57:23;23.42;;;11.25;;
39518;SDS011;25200;53.394;10.414;2024-03-08T08:59:49;26.75;;;12.23;;
39518;SDS011;25200;53.394;10.414;2024-03-08T09:02:15;27.48;;;12.48;;
39518;SDS011;25200;53.394;10.414;2024-03-08T09:04:41;25.27;;;11.48;;
39518;SDS011;25200;53.394;10.414;2024-03-08T09:07:08;27.83;;;12.50;;
39518;SDS011;25200;53.394;10.414;2024-03-08T09:09:34;28.42;;;12.80;;
39518;SDS011;25200;53.394;10.414;2024-03-08T09:12:00;29.20;;;11.85;;
39518;SDS011;25200;53.394;10.414;2024-03-08T09:14:26;22.88;;;10.30;;
39518;SDS011;25200;53.394;10.414;2024-03-08T09:16:51;29.35;;;12.38;;
39518;SDS011;25200;53.394;10.414;2024-03-08T09:19:17;29.52;;;13.02;;
39518;SDS011;25200;53.394;10.414;2024-03-08T09:21:44;29.17;;;13.15;;
39518;SDS011;25200;53.394;10.414;2024-03-08T09:24:10;24.08;;;12.23;;
39518;SDS011;25200;53.394;10.414;2024-03-08T09:26:35;25.70;;;11.10;;
39518;SDS011;25200;53.394;10.414;2024-03-08T09:29:02;30.10;;;13.20;;
39518;SDS011;25200;53.394;10.414;2024-03-08T09:31:27;24.65;;;10.80;;
39518;SDS011;25200;53.394;10.414;2024-03-08T09:33:53;28.20;;;12.20;;
39518;SDS011;25200;53.394;10.414;2024-03-08T09:36:19;26.10;;;12.00;;
39518;SDS011;25200;53.394;10.414;2024-03-08T09:38:45;27.25;;;12.43;;
39518;SDS011;25200;53.394;10.414;2024-03-08T09:41:10;26.65;;;12.10;;
39518;SDS011;25200;53.394;10.414;2024-03-08T09:43:37;25.77;;;12.25;;
39518;SDS011;25200;53.394;10.414;2024-03-08T09:46:04;24.35;;;12.25;;
39518;SDS011;25200;53.394;10.414;2024-03-08T09:48:31;27.25;;;12.52;;
39518;SDS011;25200;53.394;10.414;2024-03-08T09:50:57;22.85;;;10.80;;
39518;SDS011;25200;53.394;10.414;2024-03-08T09:53:23;25.88;;;13.07;;
39518;SDS011;25200;53.394;10.414;2024-03-08T09:55:49;24.15;;;12.88;;
39518;SDS011;25200;53.394;10.414;2024-03-08T09:58:15;28.65;;;13.23;;
39518;SDS011;25200;53.394;10.414;2024-03-08T10:00:46;27.83;;;13.10;;
39518;SDS011;25200;53.394;10.414;2024-03-08T10:03:12;24.85;;;12.20;;
39518;SDS011;25200;53.394;10.414;2024-03-08T10:05:39;24.33;;;12.68;;
39518;SDS011;25200;53.394;10.414;2024-03-08T10:08:06;24.45;;;12.18;;
39518;SDS011;25200;53.394;10.414;2024-03-08T10:10:34;25.02;;;12.75;;
39518;SDS011;25200;53.394;10.414;2024-03-08T10:13:00;28.70;;;13.68;;
39518;SDS011;25200;53.394;10.414;2024-03-08T10:15:29;24.17;;;13.07;;
39518;SDS011;25200;53.394;10.414;2024-03-08T10:17:58;23.75;;;12.57;;
39518;SDS011;25200;53.394;10.414;2024-03-08T10:20:24;24.75;;;12.15;;
39518;SDS011;25200;53.394;10.414;2024-03-08T10:22:51;24.45;;;11.80;;
39518;SDS011;25200;53.394;10.414;2024-03-08T10:25:18;23.10;;;12.07;;
39518;SDS011;25200;53.394;10.414;2024-03-08T10:27:44;22.90;;;12.35;;
39518;SDS011;25200;53.394;10.414;2024-03-08T10:30:10;22.60;;;11.88;;
39518;SDS011;25200;53.394;10.414;2024-03-08T10:32:40;24.02;;;11.80;;
39518;SDS011;25200;53.394;10.414;2024-03-08T10:35:06;21.67;;;10.95;;
39518;SDS011;25200;53.394;10.414;2024-03-08T10:37:40;23.75;;;12.15;;
39518;SDS011;25200;53.394;10.414;2024-03-08T10:40:13;23.70;;;12.13;;
39518;SDS011;25200;53.394;10.414;2024-03-08T10:45:38;22.42;;;11.35;;
39518;SDS011;25200;53.394;10.414;2024-03-08T10:50:56;23.77;;;12.25;;
39518;SDS011;25200;53.394;10.414;2024-03-08T10:53:23;18.92;;;10.68;;
39518;SDS011;25200;53.394;10.414;2024-03-08T10:55:52;22.42;;;12.15;;
39518;SDS011;25200;53.394;10.414;2024-03-08T10:58:22;21.50;;;12.15;;
39518;SDS011;25200;53.394;10.414;2024-03-08T11:00:52;24.83;;;12.88;;
39518;SDS011;25200;53.394;10.414;2024-03-08T11:06:07;20.98;;;11.38;;
39518;SDS011;25200;53.394;10.414;2024-03-08T11:08:36;21.63;;;11.95;;
39518;SDS011;25200;53.394;10.414;2024-03-08T11:11:01;19.33;;;11.40;;
39518;SDS011;25200;53.394;10.414;2024-03-08T11:13:37;21.60;;;11.80;;
39518;SDS011;25200;53.394;10.414;2024-03-08T11:16:11;22.02;;;12.05;;
39518;SDS011;25200;53.394;10.414;2024-03-08T11:19:00;19.58;;;11.35;;
39518;SDS011;25200;53.394;10.414;2024-03-08T11:21:31;20.55;;;11.20;;
39518;SDS011;25200;53.394;10.414;2024-03-08T11:24:08;21.58;;;12.07;;
39518;SDS011;25200;53.394;10.414;2024-03-08T11:26:36;21.08;;;11.48;;
39518;SDS011;25200;53.394;10.414;2024-03-08T11:34:48;23.30;;;11.82;;
39518;SDS011;25200;53.394;10.414;2024-03-08T11:37:15;21.35;;;12.10;;
39518;SDS011;25200;53.394;10.414;2024-03-08T11:39:49;23.35;;;11.90;;
39518;SDS011;25200;53.394;10.414;2024-03-08T11:42:16;22.25;;;11.57;;
39518;SDS011;25200;53.394;10.414;2024-03-08T11:44:44;22.20;;;11.48;;
39518;SDS011;25200;53.394;10.414;2024-03-08T11:47:10;23.80;;;12.20;;
39518;SDS011;25200;53.394;10.414;2024-03-08T11:49:37;24.42;;;12.85;;
39518;SDS011;25200;53.394;10.414;2024-03-08T11:52:04;20.00;;;11.30;;
39518;SDS011;25200;53.394;10.414;2024-03-08T11:54:30;19.98;;;11.07;;
39518;SDS011;25200;53.394;10.414;2024-03-08T11:56:59;21.60;;;11.32;;
39518;SDS011;25200;53.394;10.414;2024-03-08T11:59:28;20.77;;;11.68;;
39518;SDS011;25200;53.394;10.414;2024-03-08T12:01:58;19.75;;;11.20;;
39518;SDS011;25200;53.394;10.414;2024-03-08T12:04:28;20.60;;;10.93;;
39518;SDS011;25200;53.394;10.414;2024-03-08T12:06:55;19.08;;;10.73;;
39518;SDS011;25200;53.394;10.414;2024-03-08T12:09:23;17.70;;;10.60;;
39518;SDS011;25200;53.394;10.414;2024-03-08T12:11:49;18.67;;;10.27;;
39518;SDS011;25200;53.394;10.414;2024-03-08T12:14:16;20.27;;;11.63;;
39518;SDS011;25200;53.394;10.414;2024-03-08T12:16:42;19.17;;;10.63;;
39518;SDS011;25200;53.394;10.414;2024-03-08T12:19:08;20.00;;;10.50;;
39518;SDS011;25200;53.394;10.414;2024-03-08T12:21:35;20.60;;;10.75;;
39518;SDS011;25200;53.394;10.414;2024-03-08T12:24:01;19.05;;;10.25;;
39518;SDS011;25200;53.394;10.414;2024-03-08T12:26:34;16.88;;;10.27;;
39518;SDS011;25200;53.394;10.414;2024-03-08T12:29:17;18.25;;;11.20;;
39518;SDS011;25200;53.394;10.414;2024-03-08T12:31:46;18.00;;;9.82;;
39518;SDS011;25200;53.394;10.414;2024-03-08T12:34:12;18.00;;;10.35;;
39518;SDS011;25200;53.394;10.414;2024-03-08T12:36:43;16.98;;;9.68;;
39518;SDS011;25200;53.394;10.414;2024-03-08T12:39:12;16.73;;;10.25;;
39518;SDS011;25200;53.394;10.414;2024-03-08T12:41:40;17.27;;;9.30;;
39518;SDS011;25200;53.394;10.414;2024-03-08T12:44:06;18.25;;;9.98;;
39518;SDS011;25200;53.394;10.414;2024-03-08T12:46:36;18.15;;;10.02;;
39518;SDS011;25200;53.394;10.414;2024-03-08T12:49:05;17.27;;;10.00;;
39518;SDS011;25200;53.394;10.414;2024-03-08T12:51:32;19.13;;;9.73;;
39518;SDS011;25200;53.394;10.414;2024-03-08T12:53:58;17.73;;;10.07;;
39518;SDS011;25200;53.394;10.414;2024-03-08T12:56:31;15.57;;;9.50;;
39518;SDS011;25200;53.394;10.414;2024-03-08T12:58:58;18.48;;;9.65;;
39518;SDS011;25200;53.394;10.414;2024-03-08T13:01:25;17.33;;;10.55;;
39518;SDS011;25200;53.394;10.414;2024-03-08T13:03:51;16.88;;;9.85;;
39518;SDS011;25200;53.394;10.414;2024-03-08T13:06:18;15.02;;;9.20;;
39518;SDS011;25200;53.394;10.414;2024-03-08T13:08:46;19.08;;;9.90;;
39518;SDS011;25200;53.394;10.414;2024-03-08T13:11:13;15.95;;;8.85;;
39518;SDS011;25200;53.394;10.414;2024-03-08T13:13:42;16.95;;;9.70;;
39518;SDS011;25200;53.394;10.414;2024-03-08T13:16:09;17.17;;;9.93;;
39518;SDS011;25200;53.394;10.414;2024-03-08T13:18:35;16.80;;;9.98;;
39518;SDS011;25200;53.394;10.414;2024-03-08T13:21:01;17.35;;;10.25;;
39518;SDS011;25200;53.394;10.414;2024-03-08T13:23:31;15.48;;;9.32;;
39518;SDS011;25200;53.394;10.414;2024-03-08T13:25:58;15.82;;;9.45;;
39518;SDS011;25200;53.394;10.414;2024-03-08T13:28:24;17.17;;;9.38;;
39518;SDS011;25200;53.394;10.414;2024-03-08T13:30:54;16.67;;;9.63;;
39518;SDS011;25200;53.394;10.414;2024-03-08T13:33:22;15.15;;;8.88;;
39518;SDS011;25200;53.394;10.414;2024-03-08T13:35:48;15.43;;;8.93;;
39518;SDS011;25200;53.394;10.414;2024-03-08T13:38:15;17.30;;;9.50;;
39518;SDS011;25200;53.394;10.414;2024-03-08T13:40:43;14.98;;;9.18;;
39518;SDS011;25200;53.394;10.414;2024-03-08T13:43:08;15.27;;;9.00;;
39518;SDS011;25200;53.394;10.414;2024-03-08T13:45:34;16.75;;;9.00;;
39518;SDS011;25200;53.394;10.414;2024-03-08T13:48:03;14.23;;;8.63;;
39518;SDS011;25200;53.394;10.414;2024-03-08T13:50:29;17.00;;;8.82;;
39518;SDS011;25200;53.394;10.414;2024-03-08T13:52:55;15.20;;;9.15;;
39518;SDS011;25200;53.394;10.414;2024-03-08T13:55:21;13.60;;;8.50;;
39518;SDS011;25200;53.394;10.414;2024-03-08T13:57:48;16.63;;;8.55;;
39518;SDS011;25200;53.394;10.414;2024-03-08T14:00:14;13.73;;;8.20;;
39518;SDS011;25200;53.394;10.414;2024-03-08T14:02:40;13.68;;;8.20;;
39518;SDS011;25200;53.394;10.414;2024-03-08T14:05:08;14.95;;;8.20;;
39518;SDS011;25200;53.394;10.414;2024-03-08T14:07:36;14.48;;;7.57;;
39518;SDS011;25200;53.394;10.414;2024-03-08T14:10:01;13.93;;;7.68;;
39518;SDS011;25200;53.394;10.414;2024-03-08T14:12:27;14.48;;;7.78;;
39518;SDS011;25200;53.394;10.414;2024-03-08T14:14:53;13.55;;;7.78;;
39518;SDS011;25200;53.394;10.414;2024-03-08T14:17:18;15.55;;;7.90;;
39518;SDS011;25200;53.394;10.414;2024-03-08T14:19:44;15.00;;;8.30;;
39518;SDS011;25200;53.394;10.414;2024-03-08T14:22:09;16.75;;;8.73;;
39518;SDS011;25200;53.394;10.414;2024-03-08T14:24:39;14.30;;;8.25;;
39518;SDS011;25200;53.394;10.414;2024-03-08T14:27:07;13.75;;;8.20;;
39518;SDS011;25200;53.394;10.414;2024-03-08T14:29:34;15.88;;;9.60;;